sensor_id;sensor_type;location;lat;lon;timestamp;P1;durP1;ratioP1;P2;durP2;ratioP2
4963;SDS011;2497;47.410;9.740;2023-05-07T00:00:08;4.40;;;2.73;;
4963;SDS011;2497;47.410;9.740;2023-05-07T00:02:36;9.43;;;2.50;;
4963;SDS011;2497;47.410;9.740;2023-05-07T00:05:03;4.77;;;1.93;;
4963;SDS011;2497;47.410;9.740;2023-05-07T00:07:31;4.17;;;2.00;;
4963;SDS011;2497;47.410;9.740;2023-05-07T00:09:58;2.70;;;1.80;;
4963;SDS011;2497;47.410;9.740;2023-05-07T00:12:27;3.30;;;1.97;;
4963;SDS011;2497;47.410;9.740;2023-05-07T00:14:56;3.33;;;1.63;;
4963;SDS011;2497;47.410;9.740;2023-05-07T00:17:23;2.40;;;1.73;;
4963;SDS011;2497;47.410;9.740;2023-05-07T00:19:53;6.87;;;2.10;;
4963;SDS011;2497;47.410;9.740;2023-05-07T00:22:20;3.47;;;2.40;;
4963;SDS011;2497;47.410;9.740;2023-05-07T00:24:47;4.00;;;1.80;;
4963;SDS011;2497;47.410;9.740;2023-05-07T00:27:14;6.30;;;1.97;;
4963;SDS011;2497;47.410;9.740;2023-05-07T00:29:43;3.40;;;1.97;;
4963;SDS011;2497;47.410;9.740;2023-05-07T00:32:11;2.87;;;2.00;;
4963;SDS011;2497;47.410;9.740;2023-05-07T00:34:38;6.20;;;2.17;;
4963;SDS011;2497;47.410;9.740;2023-05-07T00:37:05;2.83;;;1.80;;
4963;SDS011;2497;47.410;9.740;2023-05-07T00:39:32;9.83;;;2.07;;
4963;SDS011;2497;47.410;9.740;2023-05-07T00:41:59;3.87;;;1.60;;
4963;SDS011;2497;47.410;9.740;2023-05-07T00:44:27;4.93;;;2.07;;
4963;SDS011;2497;47.410;9.740;2023-05-07T00:46:56;3.33;;;1.87;;
4963;SDS011;2497;47.410;9.740;2023-05-07T00:49:24;3.10;;;1.97;;
4963;SDS011;2497;47.410;9.740;2023-05-07T00:52:03;3.60;;;2.03;;
4963;SDS011;2497;47.410;9.740;2023-05-07T00:54:30;3.07;;;1.50;;
4963;SDS011;2497;47.410;9.740;2023-05-07T00:56:58;3.00;;;1.77;;
4963;SDS011;2497;47.410;9.740;2023-05-07T00:59:25;2.63;;;1.70;;
4963;SDS011;2497;47.410;9.740;2023-05-07T01:01:53;3.47;;;1.93;;
4963;SDS011;2497;47.410;9.740;2023-05-07T01:04:21;6.00;;;2.00;;
4963;SDS011;2497;47.410;9.740;2023-05-07T01:06:49;3.30;;;2.00;;
4963;SDS011;2497;47.410;9.740;2023-05-07T01:09:18;2.03;;;1.70;;
4963;SDS011;2497;47.410;9.740;2023-05-07T01:11:46;3.20;;;1.90;;
4963;SDS011;2497;47.410;9.740;2023-05-07T01:14:14;2.13;;;1.70;;
4963;SDS011;2497;47.410;9.740;2023-05-07T01:16:41;2.53;;;1.73;;
4963;SDS011;2497;47.410;9.740;2023-05-07T01:19:09;3.03;;;1.80;;
4963;SDS011;2497;47.410;9.740;2023-05-07T01:21:40;2.13;;;1.70;;
4963;SDS011;2497;47.410;9.740;2023-05-07T01:24:14;3.47;;;1.73;;
4963;SDS011;2497;47.410;9.740;2023-05-07T01:26:41;4.97;;;2.00;;
4963;SDS011;2497;47.410;9.740;2023-05-07T01:29:08;3.70;;;2.07;;
4963;SDS011;2497;47.410;9.740;2023-05-07T01:31:35;3.60;;;2.20;;
4963;SDS011;2497;47.410;9.740;2023-05-07T01:34:03;2.73;;;1.83;;
4963;SDS011;2497;47.410;9.740;2023-05-07T01:36:33;2.20;;;1.90;;
4963;SDS011;2497;47.410;9.740;2023-05-07T01:39:04;3.30;;;1.70;;
4963;SDS011;2497;47.410;9.740;2023-05-07T01:41:33;3.80;;;1.70;;
4963;SDS011;2497;47.410;9.740;2023-05-07T01:44:01;4.83;;;2.00;;
4963;SDS011;2497;47.410;9.740;2023-05-07T01:46:30;3.47;;;2.10;;
4963;SDS011;2497;47.410;9.740;2023-05-07T01:48:58;4.00;;;2.40;;
4963;SDS011;2497;47.410;9.740;2023-05-07T01:51:25;2.67;;;2.10;;
4963;SDS011;2497;47.410;9.740;2023-05-07T01:53:53;3.60;;;2.10;;
4963;SDS011;2497;47.410;9.740;2023-05-07T01:56:20;3.10;;;1.90;;
4963;SDS011;2497;47.410;9.740;2023-05-07T01:58:49;6.03;;;2.23;;
4963;SDS011;2497;47.410;9.740;2023-05-07T02:01:17;3.10;;;1.80;;
4963;SDS011;2497;47.410;9.740;2023-05-07T02:03:44;4.07;;;2.00;;
4963;SDS011;2497;47.410;9.740;2023-05-07T02:06:11;2.93;;;1.50;;
4963;SDS011;2497;47.410;9.740;2023-05-07T02:08:38;8.60;;;1.90;;
4963;SDS011;2497;47.410;9.740;2023-05-07T02:11:05;2.17;;;1.60;;
4963;SDS011;2497;47.410;9.740;2023-05-07T02:13:33;2.67;;;2.30;;
4963;SDS011;2497;47.410;9.740;2023-05-07T02:16:02;2.13;;;1.50;;
4963;SDS011;2497;47.410;9.740;2023-05-07T02:18:30;5.60;;;1.90;;
4963;SDS011;2497;47.410;9.740;2023-05-07T02:20:58;6.17;;;1.80;;
4963;SDS011;2497;47.410;9.740;2023-05-07T02:23:26;5.53;;;1.70;;
4963;SDS011;2497;47.410;9.740;2023-05-07T02:25:53;4.63;;;1.63;;
4963;SDS011;2497;47.410;9.740;2023-05-07T02:28:20;5.03;;;2.13;;
4963;SDS011;2497;47.410;9.740;2023-05-07T02:30:48;5.00;;;2.07;;
4963;SDS011;2497;47.410;9.740;2023-05-07T02:33:17;3.43;;;1.63;;
4963;SDS011;2497;47.410;9.740;2023-05-07T02:35:44;4.83;;;2.10;;
4963;SDS011;2497;47.410;9.740;2023-05-07T02:38:11;2.67;;;1.90;;
4963;SDS011;2497;47.410;9.740;2023-05-07T02:40:38;3.47;;;2.10;;
4963;SDS011;2497;47.410;9.740;2023-05-07T02:43:05;2.70;;;2.20;;
4963;SDS011;2497;47.410;9.740;2023-05-07T02:45:32;2.33;;;1.60;;
4963;SDS011;2497;47.410;9.740;2023-05-07T02:47:59;4.33;;;2.03;;
4963;SDS011;2497;47.410;9.740;2023-05-07T02:50:28;2.80;;;1.87;;
4963;SDS011;2497;47.410;9.740;2023-05-07T02:52:55;1.97;;;1.73;;
4963;SDS011;2497;47.410;9.740;2023-05-07T02:55:22;2.27;;;1.83;;
4963;SDS011;2497;47.410;9.740;2023-05-07T02:57:49;5.40;;;1.70;;
4963;SDS011;2497;47.410;9.740;2023-05-07T03:00:17;7.70;;;1.83;;
4963;SDS011;2497;47.410;9.740;2023-05-07T03:02:45;2.73;;;1.80;;
4963;SDS011;2497;47.410;9.740;2023-05-07T03:05:12;4.30;;;2.00;;
4963;SDS011;2497;47.410;9.740;2023-05-07T03:07:41;4.70;;;2.30;;
4963;SDS011;2497;47.410;9.740;2023-05-07T03:10:10;4.10;;;2.33;;
4963;SDS011;2497;47.410;9.740;2023-05-07T03:12:37;5.97;;;2.40;;
4963;SDS011;2497;47.410;9.740;2023-05-07T03:15:05;7.07;;;2.13;;
4963;SDS011;2497;47.410;9.740;2023-05-07T03:17:33;2.53;;;1.97;;
4963;SDS011;2497;47.410;9.740;2023-05-07T03:20:00;3.93;;;2.13;;
4963;SDS011;2497;47.410;9.740;2023-05-07T03:22:27;9.47;;;2.73;;
4963;SDS011;2497;47.410;9.740;2023-05-07T03:24:55;3.20;;;2.43;;
4963;SDS011;2497;47.410;9.740;2023-05-07T03:27:22;4.20;;;1.67;;
4963;SDS011;2497;47.410;9.740;2023-05-07T03:29:52;4.10;;;2.00;;
4963;SDS011;2497;47.410;9.740;2023-05-07T03:32:19;3.17;;;2.13;;
4963;SDS011;2497;47.410;9.740;2023-05-07T03:34:46;5.23;;;2.03;;
4963;SDS011;2497;47.410;9.740;2023-05-07T03:37:13;3.73;;;1.80;;
4963;SDS011;2497;47.410;9.740;2023-05-07T03:39:41;3.03;;;1.80;;
4963;SDS011;2497;47.410;9.740;2023-05-07T03:42:09;2.63;;;1.77;;
4963;SDS011;2497;47.410;9.740;2023-05-07T03:44:36;5.10;;;2.60;;
4963;SDS011;2497;47.410;9.740;2023-05-07T03:47:03;4.90;;;2.27;;
4963;SDS011;2497;47.410;9.740;2023-05-07T03:49:30;3.60;;;1.93;;
4963;SDS011;2497;47.410;9.740;2023-05-07T03:51:57;2.07;;;1.60;;
4963;SDS011;2497;47.410;9.740;2023-05-07T03:54:25;5.00;;;2.00;;
4963;SDS011;2497;47.410;9.740;2023-05-07T03:56:52;2.63;;;1.80;;
4963;SDS011;2497;47.410;9.740;2023-05-07T03:59:20;2.30;;;1.63;;
4963;SDS011;2497;47.410;9.740;2023-05-07T04:01:48;4.50;;;1.93;;
4963;SDS011;2497;47.410;9.740;2023-05-07T04:04:15;2.77;;;2.00;;
4963;SDS011;2497;47.410;9.740;2023-05-07T04:06:42;4.07;;;1.60;;
4963;SDS011;2497;47.410;9.740;2023-05-07T04:09:09;2.90;;;1.73;;
4963;SDS011;2497;47.410;9.740;2023-05-07T04:11:36;4.10;;;2.10;;
4963;SDS011;2497;47.410;9.740;2023-05-07T04:14:05;7.30;;;2.20;;
4963;SDS011;2497;47.410;9.740;2023-05-07T04:16:34;6.10;;;1.77;;
4963;SDS011;2497;47.410;9.740;2023-05-07T04:19:01;2.77;;;1.80;;
4963;SDS011;2497;47.410;9.740;2023-05-07T04:21:28;4.60;;;2.07;;
4963;SDS011;2497;47.410;9.740;2023-05-07T04:23:56;3.30;;;2.27;;
4963;SDS011;2497;47.410;9.740;2023-05-07T04:26:23;4.27;;;2.13;;
4963;SDS011;2497;47.410;9.740;2023-05-07T04:28:50;3.27;;;1.70;;
4963;SDS011;2497;47.410;9.740;2023-05-07T04:31:17;3.20;;;2.00;;
4963;SDS011;2497;47.410;9.740;2023-05-07T04:33:46;4.17;;;1.80;;
4963;SDS011;2497;47.410;9.740;2023-05-07T04:36:13;2.10;;;1.53;;
4963;SDS011;2497;47.410;9.740;2023-05-07T04:38:40;4.93;;;2.20;;
4963;SDS011;2497;47.410;9.740;2023-05-07T04:41:08;3.50;;;1.93;;
4963;SDS011;2497;47.410;9.740;2023-05-07T04:43:36;4.17;;;2.10;;
4963;SDS011;2497;47.410;9.740;2023-05-07T04:46:03;2.10;;;1.50;;
4963;SDS011;2497;47.410;9.740;2023-05-07T04:48:30;3.30;;;1.93;;
4963;SDS011;2497;47.410;9.740;2023-05-07T04:50:59;3.27;;;1.80;;
4963;SDS011;2497;47.410;9.740;2023-05-07T04:53:26;2.87;;;2.07;;
4963;SDS011;2497;47.410;9.740;2023-05-07T04:55:56;2.03;;;1.83;;
4963;SDS011;2497;47.410;9.740;2023-05-07T04:58:23;3.33;;;2.17;;
4963;SDS011;2497;47.410;9.740;2023-05-07T05:00:50;6.17;;;1.97;;
4963;SDS011;2497;47.410;9.740;2023-05-07T05:03:18;4.57;;;1.90;;
4963;SDS011;2497;47.410;9.740;2023-05-07T05:05:45;3.70;;;1.80;;
4963;SDS011;2497;47.410;9.740;2023-05-07T05:08:13;3.27;;;1.50;;
4963;SDS011;2497;47.410;9.740;2023-05-07T05:10:40;3.40;;;2.20;;
4963;SDS011;2497;47.410;9.740;2023-05-07T05:13:08;6.13;;;2.03;;
4963;SDS011;2497;47.410;9.740;2023-05-07T05:15:37;2.03;;;1.70;;
4963;SDS011;2497;47.410;9.740;2023-05-07T05:18:04;1.90;;;1.70;;
4963;SDS011;2497;47.410;9.740;2023-05-07T05:20:31;2.73;;;1.73;;
4963;SDS011;2497;47.410;9.740;2023-05-07T05:22:58;4.27;;;2.00;;
4963;SDS011;2497;47.410;9.740;2023-05-07T05:25:27;2.03;;;1.80;;
4963;SDS011;2497;47.410;9.740;2023-05-07T05:27:54;3.60;;;3.03;;
4963;SDS011;2497;47.410;9.740;2023-05-07T05:30:21;2.70;;;1.93;;
4963;SDS011;2497;47.410;9.740;2023-05-07T05:32:48;3.70;;;1.70;;
4963;SDS011;2497;47.410;9.740;2023-05-07T05:35:16;2.33;;;1.70;;
4963;SDS011;2497;47.410;9.740;2023-05-07T05:37:43;4.10;;;2.17;;
4963;SDS011;2497;47.410;9.740;2023-05-07T05:40:10;5.53;;;2.33;;
4963;SDS011;2497;47.410;9.740;2023-05-07T05:42:39;1.90;;;1.80;;
4963;SDS011;2497;47.410;9.740;2023-05-07T05:45:07;8.63;;;2.33;;
4963;SDS011;2497;47.410;9.740;2023-05-07T05:47:35;2.20;;;1.60;;
4963;SDS011;2497;47.410;9.740;2023-05-07T05:50:04;10.67;;;2.20;;
4963;SDS011;2497;47.410;9.740;2023-05-07T05:52:32;5.70;;;2.30;;
4963;SDS011;2497;47.410;9.740;2023-05-07T05:54:59;4.80;;;1.80;;
4963;SDS011;2497;47.410;9.740;2023-05-07T05:57:26;3.80;;;1.90;;
4963;SDS011;2497;47.410;9.740;2023-05-07T05:59:55;4.03;;;1.50;;
4963;SDS011;2497;47.410;9.740;2023-05-07T06:02:22;2.90;;;1.80;;
4963;SDS011;2497;47.410;9.740;2023-05-07T06:04:49;3.83;;;1.60;;
4963;SDS011;2497;47.410;9.740;2023-05-07T06:07:16;3.20;;;1.73;;
4963;SDS011;2497;47.410;9.740;2023-05-07T06:09:43;4.23;;;1.63;;
4963;SDS011;2497;47.410;9.740;2023-05-07T06:12:10;2.70;;;1.83;;
4963;SDS011;2497;47.410;9.740;2023-05-07T06:14:37;3.80;;;2.20;;
4963;SDS011;2497;47.410;9.740;2023-05-07T06:17:07;2.87;;;2.07;;
4963;SDS011;2497;47.410;9.740;2023-05-07T06:19:34;4.70;;;2.60;;
4963;SDS011;2497;47.410;9.740;2023-05-07T06:22:01;4.77;;;2.40;;
4963;SDS011;2497;47.410;9.740;2023-05-07T06:24:28;3.13;;;2.17;;
4963;SDS011;2497;47.410;9.740;2023-05-07T06:26:55;2.80;;;2.10;;
4963;SDS011;2497;47.410;9.740;2023-05-07T06:29:23;3.53;;;2.00;;
4963;SDS011;2497;47.410;9.740;2023-05-07T06:31:51;2.80;;;2.07;;
4963;SDS011;2497;47.410;9.740;2023-05-07T06:34:19;2.57;;;1.83;;
4963;SDS011;2497;47.410;9.740;2023-05-07T06:36:47;5.27;;;2.80;;
4963;SDS011;2497;47.410;9.740;2023-05-07T06:39:14;2.10;;;1.90;;
4963;SDS011;2497;47.410;9.740;2023-05-07T06:41:41;4.07;;;2.00;;
4963;SDS011;2497;47.410;9.740;2023-05-07T06:44:08;2.87;;;2.00;;
4963;SDS011;2497;47.410;9.740;2023-05-07T06:46:35;2.73;;;1.90;;
4963;SDS011;2497;47.410;9.740;2023-05-07T06:49:02;2.60;;;1.80;;
4963;SDS011;2497;47.410;9.740;2023-05-07T06:51:31;3.27;;;1.90;;
4963;SDS011;2497;47.410;9.740;2023-05-07T06:53:58;4.30;;;2.23;;
4963;SDS011;2497;47.410;9.740;2023-05-07T06:56:29;5.83;;;2.30;;
4963;SDS011;2497;47.410;9.740;2023-05-07T06:58:56;3.40;;;2.17;;
4963;SDS011;2497;47.410;9.740;2023-05-07T07:01:23;4.90;;;1.93;;
4963;SDS011;2497;47.410;9.740;2023-05-07T07:03:50;4.57;;;2.10;;
4963;SDS011;2497;47.410;9.740;2023-05-07T07:06:17;2.67;;;2.17;;
4963;SDS011;2497;47.410;9.740;2023-05-07T07:08:46;3.00;;;2.40;;
4963;SDS011;2497;47.410;9.740;2023-05-07T07:11:13;4.50;;;2.53;;
4963;SDS011;2497;47.410;9.740;2023-05-07T07:13:41;4.67;;;2.03;;
4963;SDS011;2497;47.410;9.740;2023-05-07T07:16:08;2.73;;;2.10;;
4963;SDS011;2497;47.410;9.740;2023-05-07T07:18:36;3.80;;;2.03;;
4963;SDS011;2497;47.410;9.740;2023-05-07T07:21:03;1.90;;;1.70;;
4963;SDS011;2497;47.410;9.740;2023-05-07T07:23:30;2.27;;;1.67;;
4963;SDS011;2497;47.410;9.740;2023-05-07T07:25:59;6.13;;;1.90;;
4963;SDS011;2497;47.410;9.740;2023-05-07T07:28:26;2.97;;;2.00;;
4963;SDS011;2497;47.410;9.740;2023-05-07T07:30:53;4.23;;;1.90;;
4963;SDS011;2497;47.410;9.740;2023-05-07T07:33:20;3.00;;;2.23;;
4963;SDS011;2497;47.410;9.740;2023-05-07T07:35:47;3.40;;;2.00;;
4963;SDS011;2497;47.410;9.740;2023-05-07T07:38:14;2.10;;;1.70;;
4963;SDS011;2497;47.410;9.740;2023-05-07T07:40:41;2.93;;;2.07;;
4963;SDS011;2497;47.410;9.740;2023-05-07T07:43:10;3.47;;;2.00;;
4963;SDS011;2497;47.410;9.740;2023-05-07T07:45:38;5.37;;;1.80;;
4963;SDS011;2497;47.410;9.740;2023-05-07T07:48:06;2.20;;;1.70;;
4963;SDS011;2497;47.410;9.740;2023-05-07T07:50:33;2.23;;;1.90;;
4963;SDS011;2497;47.410;9.740;2023-05-07T07:53:00;3.60;;;1.90;;
4963;SDS011;2497;47.410;9.740;2023-05-07T07:55:27;2.37;;;2.00;;
4963;SDS011;2497;47.410;9.740;2023-05-07T07:57:56;3.40;;;1.80;;
4963;SDS011;2497;47.410;9.740;2023-05-07T08:00:24;1.73;;;1.60;;
4963;SDS011;2497;47.410;9.740;2023-05-07T08:02:52;3.77;;;2.10;;
4963;SDS011;2497;47.410;9.740;2023-05-07T08:05:19;2.30;;;1.70;;
4963;SDS011;2497;47.410;9.740;2023-05-07T08:07:46;2.93;;;2.10;;
4963;SDS011;2497;47.410;9.740;2023-05-07T08:10:17;6.23;;;1.93;;
4963;SDS011;2497;47.410;9.740;2023-05-07T08:12:46;4.27;;;1.93;;
4963;SDS011;2497;47.410;9.740;2023-05-07T08:15:14;3.40;;;1.80;;
4963;SDS011;2497;47.410;9.740;2023-05-07T08:17:43;5.13;;;1.70;;
4963;SDS011;2497;47.410;9.740;2023-05-07T08:20:10;2.30;;;1.90;;
4963;SDS011;2497;47.410;9.740;2023-05-07T08:22:37;2.30;;;1.70;;
4963;SDS011;2497;47.410;9.740;2023-05-07T08:25:05;3.30;;;1.83;;
4963;SDS011;2497;47.410;9.740;2023-05-07T08:27:32;2.17;;;1.70;;
4963;SDS011;2497;47.410;9.740;2023-05-07T08:29:59;2.77;;;2.07;;
4963;SDS011;2497;47.410;9.740;2023-05-07T08:32:27;2.57;;;1.70;;
4963;SDS011;2497;47.410;9.740;2023-05-07T08:34:55;3.87;;;1.93;;
4963;SDS011;2497;47.410;9.740;2023-05-07T08:37:24;3.40;;;1.90;;
4963;SDS011;2497;47.410;9.740;2023-05-07T08:40:15;2.37;;;1.93;;
4963;SDS011;2497;47.410;9.740;2023-05-07T08:43:03;2.90;;;1.60;;
4963;SDS011;2497;47.410;9.740;2023-05-07T08:45:43;2.10;;;1.50;;
4963;SDS011;2497;47.410;9.740;2023-05-07T08:48:21;2.57;;;1.40;;
4963;SDS011;2497;47.410;9.740;2023-05-07T08:50:53;2.90;;;1.67;;
4963;SDS011;2497;47.410;9.740;2023-05-07T08:53:20;2.43;;;1.80;;
4963;SDS011;2497;47.410;9.740;2023-05-07T08:55:47;2.00;;;1.50;;
4963;SDS011;2497;47.410;9.740;2023-05-07T08:58:14;1.90;;;1.50;;
4963;SDS011;2497;47.410;9.740;2023-05-07T09:00:42;3.60;;;2.10;;
4963;SDS011;2497;47.410;9.740;2023-05-07T09:03:09;1.63;;;1.20;;
4963;SDS011;2497;47.410;9.740;2023-05-07T09:05:37;3.67;;;1.63;;
4963;SDS011;2497;47.410;9.740;2023-05-07T09:08:07;2.87;;;1.80;;
4963;SDS011;2497;47.410;9.740;2023-05-07T09:10:34;2.73;;;2.00;;
4963;SDS011;2497;47.410;9.740;2023-05-07T09:13:02;2.13;;;1.73;;
4963;SDS011;2497;47.410;9.740;2023-05-07T09:15:30;2.20;;;1.37;;
4963;SDS011;2497;47.410;9.740;2023-05-07T09:17:59;3.83;;;1.53;;
4963;SDS011;2497;47.410;9.740;2023-05-07T09:20:27;1.97;;;1.40;;
4963;SDS011;2497;47.410;9.740;2023-05-07T09:22:57;1.90;;;1.50;;
4963;SDS011;2497;47.410;9.740;2023-05-07T09:25:31;3.20;;;1.83;;
4963;SDS011;2497;47.410;9.740;2023-05-07T09:28:00;2.50;;;1.80;;
4963;SDS011;2497;47.410;9.740;2023-05-07T09:30:28;2.33;;;1.90;;
4963;SDS011;2497;47.410;9.740;2023-05-07T09:32:55;3.27;;;1.70;;
4963;SDS011;2497;47.410;9.740;2023-05-07T09:35:24;4.87;;;1.87;;
4963;SDS011;2497;47.410;9.740;2023-05-07T09:37:52;3.70;;;2.00;;
4963;SDS011;2497;47.410;9.740;2023-05-07T09:40:20;4.67;;;2.80;;
4963;SDS011;2497;47.410;9.740;2023-05-07T09:42:49;5.17;;;2.80;;
4963;SDS011;2497;47.410;9.740;2023-05-07T09:45:21;5.23;;;2.47;;
4963;SDS011;2497;47.410;9.740;2023-05-07T09:47:49;4.53;;;2.60;;
4963;SDS011;2497;47.410;9.740;2023-05-07T09:50:25;5.20;;;2.70;;
4963;SDS011;2497;47.410;9.740;2023-05-07T09:52:54;4.47;;;2.40;;
4963;SDS011;2497;47.410;9.740;2023-05-07T09:55:22;4.70;;;2.13;;
4963;SDS011;2497;47.410;9.740;2023-05-07T09:57:52;4.90;;;2.30;;
4963;SDS011;2497;47.410;9.740;2023-05-07T10:00:20;2.90;;;2.40;;
4963;SDS011;2497;47.410;9.740;2023-05-07T10:02:49;3.20;;;2.40;;
4963;SDS011;2497;47.410;9.740;2023-05-07T10:05:18;2.77;;;2.37;;
4963;SDS011;2497;47.410;9.740;2023-05-07T10:07:46;3.43;;;2.60;;
4963;SDS011;2497;47.410;9.740;2023-05-07T10:10:14;4.50;;;2.60;;
4963;SDS011;2497;47.410;9.740;2023-05-07T10:12:42;4.10;;;2.57;;
4963;SDS011;2497;47.410;9.740;2023-05-07T10:15:11;5.00;;;2.47;;
4963;SDS011;2497;47.410;9.740;2023-05-07T10:17:39;3.27;;;2.60;;
4963;SDS011;2497;47.410;9.740;2023-05-07T10:20:08;3.30;;;2.57;;
4963;SDS011;2497;47.410;9.740;2023-05-07T10:22:37;5.30;;;2.70;;
4963;SDS011;2497;47.410;9.740;2023-05-07T10:25:09;3.27;;;2.33;;
4963;SDS011;2497;47.410;9.740;2023-05-07T10:27:42;5.63;;;2.80;;
4963;SDS011;2497;47.410;9.740;2023-05-07T10:30:15;5.30;;;2.37;;
4963;SDS011;2497;47.410;9.740;2023-05-07T10:32:51;7.03;;;3.10;;
4963;SDS011;2497;47.410;9.740;2023-05-07T10:35:24;3.83;;;2.00;;
4963;SDS011;2497;47.410;9.740;2023-05-07T10:37:56;2.40;;;2.20;;
4963;SDS011;2497;47.410;9.740;2023-05-07T10:40:49;4.93;;;2.30;;
4963;SDS011;2497;47.410;9.740;2023-05-07T10:43:39;4.13;;;2.60;;
4963;SDS011;2497;47.410;9.740;2023-05-07T10:46:18;4.47;;;2.30;;
4963;SDS011;2497;47.410;9.740;2023-05-07T10:51:43;3.80;;;2.17;;
4963;SDS011;2497;47.410;9.740;2023-05-07T10:54:20;3.10;;;2.30;;
4963;SDS011;2497;47.410;9.740;2023-05-07T11:00:00;2.60;;;1.83;;
4963;SDS011;2497;47.410;9.740;2023-05-07T11:05:29;2.87;;;2.00;;
4963;SDS011;2497;47.410;9.740;2023-05-07T11:07:57;3.63;;;2.23;;
4963;SDS011;2497;47.410;9.740;2023-05-07T11:10:38;3.10;;;2.40;;
4963;SDS011;2497;47.410;9.740;2023-05-07T11:13:17;2.53;;;2.33;;
4963;SDS011;2497;47.410;9.740;2023-05-07T11:15:47;3.30;;;2.30;;
4963;SDS011;2497;47.410;9.740;2023-05-07T11:18:15;3.43;;;2.23;;
4963;SDS011;2497;47.410;9.740;2023-05-07T11:20:48;3.63;;;2.30;;
4963;SDS011;2497;47.410;9.740;2023-05-07T11:26:23;4.27;;;2.60;;
4963;SDS011;2497;47.410;9.740;2023-05-07T11:28:51;3.00;;;2.33;;
4963;SDS011;2497;47.410;9.740;2023-05-07T11:31:22;5.30;;;2.43;;
4963;SDS011;2497;47.410;9.740;2023-05-07T11:33:56;3.77;;;2.57;;
4963;SDS011;2497;47.410;9.740;2023-05-07T11:36:32;4.60;;;2.10;;
4963;SDS011;2497;47.410;9.740;2023-05-07T11:39:11;7.20;;;2.10;;
4963;SDS011;2497;47.410;9.740;2023-05-07T11:41:51;5.53;;;1.60;;
4963;SDS011;2497;47.410;9.740;2023-05-07T11:44:18;6.53;;;3.47;;
4963;SDS011;2497;47.410;9.740;2023-05-07T11:46:45;3.97;;;2.33;;
4963;SDS011;2497;47.410;9.740;2023-05-07T11:49:13;5.10;;;2.27;;
4963;SDS011;2497;47.410;9.740;2023-05-07T11:51:45;4.40;;;2.33;;
4963;SDS011;2497;47.410;9.740;2023-05-07T11:54:15;2.80;;;2.07;;
4963;SDS011;2497;47.410;9.740;2023-05-07T11:56:44;3.93;;;1.80;;
4963;SDS011;2497;47.410;9.740;2023-05-07T11:59:18;2.73;;;2.07;;
4963;SDS011;2497;47.410;9.740;2023-05-07T12:01:45;5.87;;;2.53;;
4963;SDS011;2497;47.410;9.740;2023-05-07T12:04:13;3.40;;;1.90;;
4963;SDS011;2497;47.410;9.740;2023-05-07T12:06:47;5.13;;;2.07;;
4963;SDS011;2497;47.410;9.740;2023-05-07T12:09:16;2.80;;;2.17;;
4963;SDS011;2497;47.410;9.740;2023-05-07T12:11:47;5.60;;;2.57;;
4963;SDS011;2497;47.410;9.740;2023-05-07T12:14:16;2.10;;;1.60;;
4963;SDS011;2497;47.410;9.740;2023-05-07T12:16:43;2.47;;;2.10;;
4963;SDS011;2497;47.410;9.740;2023-05-07T12:19:23;1.70;;;1.60;;
4963;SDS011;2497;47.410;9.740;2023-05-07T12:21:58;3.80;;;1.53;;
4963;SDS011;2497;47.410;9.740;2023-05-07T12:24:25;2.13;;;1.80;;
4963;SDS011;2497;47.410;9.740;2023-05-07T12:26:53;2.37;;;1.70;;
4963;SDS011;2497;47.410;9.740;2023-05-07T12:29:31;2.30;;;1.57;;
4963;SDS011;2497;47.410;9.740;2023-05-07T12:32:12;1.70;;;1.50;;
4963;SDS011;2497;47.410;9.740;2023-05-07T12:34:41;2.67;;;1.57;;
4963;SDS011;2497;47.410;9.740;2023-05-07T12:37:22;4.47;;;1.90;;
4963;SDS011;2497;47.410;9.740;2023-05-07T12:40:03;1.73;;;1.50;;
4963;SDS011;2497;47.410;9.740;2023-05-07T12:42:41;2.60;;;2.10;;
4963;SDS011;2497;47.410;9.740;2023-05-07T12:45:15;5.87;;;1.77;;
4963;SDS011;2497;47.410;9.740;2023-05-07T12:47:45;2.43;;;1.87;;
4963;SDS011;2497;47.410;9.740;2023-05-07T12:50:12;3.70;;;1.70;;
4963;SDS011;2497;47.410;9.740;2023-05-07T12:52:44;1.80;;;1.70;;
4963;SDS011;2497;47.410;9.740;2023-05-07T12:55:13;1.90;;;1.50;;
4963;SDS011;2497;47.410;9.740;2023-05-07T12:57:47;1.67;;;1.33;;
4963;SDS011;2497;47.410;9.740;2023-05-07T13:00:15;3.13;;;1.83;;
4963;SDS011;2497;47.410;9.740;2023-05-07T13:02:43;2.77;;;1.70;;
4963;SDS011;2497;47.410;9.740;2023-05-07T13:05:16;2.17;;;1.70;;
4963;SDS011;2497;47.410;9.740;2023-05-07T13:07:54;5.47;;;2.23;;
4963;SDS011;2497;47.410;9.740;2023-05-07T13:10:26;2.07;;;1.57;;
4963;SDS011;2497;47.410;9.740;2023-05-07T13:12:55;2.87;;;1.70;;
4963;SDS011;2497;47.410;9.740;2023-05-07T13:15:25;3.17;;;1.40;;
4963;SDS011;2497;47.410;9.740;2023-05-07T13:17:55;1.67;;;1.50;;
4963;SDS011;2497;47.410;9.740;2023-05-07T13:20:25;2.13;;;1.70;;
4963;SDS011;2497;47.410;9.740;2023-05-07T13:22:54;3.37;;;1.60;;
4963;SDS011;2497;47.410;9.740;2023-05-07T13:25:21;2.03;;;1.50;;
4963;SDS011;2497;47.410;9.740;2023-05-07T13:27:59;2.27;;;1.60;;
4963;SDS011;2497;47.410;9.740;2023-05-07T13:30:29;3.70;;;2.30;;
4963;SDS011;2497;47.410;9.740;2023-05-07T13:32:56;3.70;;;1.90;;
4963;SDS011;2497;47.410;9.740;2023-05-07T13:35:28;2.10;;;1.50;;
4963;SDS011;2497;47.410;9.740;2023-05-07T13:37:58;4.03;;;2.20;;
4963;SDS011;2497;47.410;9.740;2023-05-07T13:40:25;1.77;;;1.50;;
4963;SDS011;2497;47.410;9.740;2023-05-07T13:42:56;2.17;;;1.80;;
4963;SDS011;2497;47.410;9.740;2023-05-07T13:45:24;3.07;;;1.87;;
4963;SDS011;2497;47.410;9.740;2023-05-07T13:47:54;2.70;;;1.90;;
4963;SDS011;2497;47.410;9.740;2023-05-07T13:50:22;2.93;;;1.90;;
4963;SDS011;2497;47.410;9.740;2023-05-07T13:52:55;2.70;;;1.50;;
4963;SDS011;2497;47.410;9.740;2023-05-07T13:55:28;4.90;;;1.87;;
4963;SDS011;2497;47.410;9.740;2023-05-07T13:57:58;4.50;;;1.90;;
4963;SDS011;2497;47.410;9.740;2023-05-07T14:00:27;2.33;;;1.80;;
4963;SDS011;2497;47.410;9.740;2023-05-07T14:02:56;2.90;;;1.93;;
4963;SDS011;2497;47.410;9.740;2023-05-07T14:05:24;2.90;;;1.90;;
4963;SDS011;2497;47.410;9.740;2023-05-07T14:07:58;2.53;;;2.00;;
4963;SDS011;2497;47.410;9.740;2023-05-07T14:10:31;3.50;;;1.60;;
4963;SDS011;2497;47.410;9.740;2023-05-07T14:13:00;4.40;;;2.40;;
4963;SDS011;2497;47.410;9.740;2023-05-07T14:15:27;1.93;;;1.80;;
4963;SDS011;2497;47.410;9.740;2023-05-07T14:17:59;5.87;;;2.37;;
4963;SDS011;2497;47.410;9.740;2023-05-07T14:20:27;2.47;;;2.10;;
4963;SDS011;2497;47.410;9.740;2023-05-07T14:23:01;3.37;;;1.93;;
4963;SDS011;2497;47.410;9.740;2023-05-07T14:25:29;6.70;;;2.40;;
4963;SDS011;2497;47.410;9.740;2023-05-07T14:27:56;5.70;;;2.40;;
4963;SDS011;2497;47.410;9.740;2023-05-07T14:30:23;4.50;;;2.10;;
4963;SDS011;2497;47.410;9.740;2023-05-07T14:32:53;2.93;;;1.63;;
4963;SDS011;2497;47.410;9.740;2023-05-07T14:35:26;2.83;;;1.90;;
4963;SDS011;2497;47.410;9.740;2023-05-07T14:37:55;2.07;;;1.80;;
4963;SDS011;2497;47.410;9.740;2023-05-07T14:40:24;5.20;;;2.17;;
4963;SDS011;2497;47.410;9.740;2023-05-07T14:42:51;3.63;;;2.30;;
4963;SDS011;2497;47.410;9.740;2023-05-07T14:45:18;5.13;;;2.20;;
4963;SDS011;2497;47.410;9.740;2023-05-07T14:47:47;7.00;;;3.13;;
4963;SDS011;2497;47.410;9.740;2023-05-07T14:50:14;6.63;;;2.63;;
4963;SDS011;2497;47.410;9.740;2023-05-07T14:52:41;5.30;;;2.90;;
4963;SDS011;2497;47.410;9.740;2023-05-07T14:55:08;4.13;;;2.40;;
4963;SDS011;2497;47.410;9.740;2023-05-07T14:57:36;6.93;;;3.10;;
4963;SDS011;2497;47.410;9.740;2023-05-07T15:00:04;10.53;;;3.63;;
4963;SDS011;2497;47.410;9.740;2023-05-07T15:02:33;4.60;;;3.20;;
4963;SDS011;2497;47.410;9.740;2023-05-07T15:05:00;5.20;;;3.37;;
4963;SDS011;2497;47.410;9.740;2023-05-07T15:07:27;4.70;;;3.53;;
4963;SDS011;2497;47.410;9.740;2023-05-07T15:09:55;8.73;;;3.40;;
4963;SDS011;2497;47.410;9.740;2023-05-07T15:12:22;5.17;;;3.17;;
4963;SDS011;2497;47.410;9.740;2023-05-07T15:14:51;4.47;;;3.17;;
4963;SDS011;2497;47.410;9.740;2023-05-07T15:17:18;7.33;;;3.20;;
4963;SDS011;2497;47.410;9.740;2023-05-07T15:19:45;6.37;;;3.40;;
4963;SDS011;2497;47.410;9.740;2023-05-07T15:22:13;5.80;;;3.77;;
4963;SDS011;2497;47.410;9.740;2023-05-07T15:24:40;5.23;;;3.80;;
4963;SDS011;2497;47.410;9.740;2023-05-07T15:27:07;6.27;;;3.70;;
4963;SDS011;2497;47.410;9.740;2023-05-07T15:29:34;8.00;;;3.90;;
4963;SDS011;2497;47.410;9.740;2023-05-07T15:32:03;5.23;;;3.60;;
4963;SDS011;2497;47.410;9.740;2023-05-07T15:34:31;5.27;;;3.80;;
4963;SDS011;2497;47.410;9.740;2023-05-07T15:36:58;4.80;;;3.23;;